Time;durP1;ratioP1;P1;durP2;ratioP2;P2;SDS_P1;SDS_P2;PMS_P1;PMS_P2;Temp;Humidity;BMP_temperature;BMP_pressure;BME280_temperature;BME280_humidity;BME280_pressure;Samples;Min_cycle;Max_cycle;Signal;HPM_P1;HPM_P2
2021/08/10 00:02:10;;;;;;;3.33;2.17;;;;;;;;;;5009301;28;20177;-81
2021/08/10 00:04:36;;;;;;;3.00;2.63;;;;;;;;;;4992878;28;20198;-81
2021/08/10 00:07:02;;;;;;;3.33;2.53;;;;;;;;;;4992521;28;20566;-82
2021/08/10 00:09:28;;;;;;;3.73;2.47;;;;;;;;;;4993423;28;21755;-81
2021/08/10 00:11:56;;;;;;;2.87;2.57;;;;;;;;;;4993204;28;20190;-81
2021/08/10 00:14:22;;;;;;;3.10;2.87;;;;;;;;;;4993851;28;20190;-81
2021/08/10 00:16:49;;;;;;;4.87;3.10;;;;;;;;;;4992832;28;20261;-81
2021/08/10 00:19:15;;;;;;;3.70;2.70;;;;;;;;;;4992877;28;20253;-81
2021/08/10 00:21:41;;;;;;;3.57;2.57;;;;;;;;;;4994943;28;20218;-81
2021/08/10 00:24:07;;;;;;;4.50;2.80;;;;;;;;;;4993082;28;20175;-82
2021/08/10 00:26:33;;;;;;;2.87;2.67;;;;;;;;;;4992728;28;20206;-81
2021/08/10 00:29:01;;;;;;;3.67;2.70;;;;;;;;;;5009560;28;20179;-82
2021/08/10 00:31:27;;;;;;;3.03;2.50;;;;;;;;;;4992821;28;20183;-81
2021/08/10 00:33:54;;;;;;;5.73;2.97;;;;;;;;;;5010146;28;20210;-82
2021/08/10 00:36:20;;;;;;;2.63;2.43;;;;;;;;;;5011875;28;20251;-82
2021/08/10 00:38:46;;;;;;;3.00;2.20;;;;;;;;;;5010835;28;20257;-81
2021/08/10 00:41:12;;;;;;;3.30;2.10;;;;;;;;;;4994064;28;20198;-81
2021/08/10 00:43:39;;;;;;;2.53;2.13;;;;;;;;;;5008628;28;20200;-81
2021/08/10 00:46:07;;;;;;;3.23;2.40;;;;;;;;;;4992173;28;20494;-81
2021/08/10 00:48:33;;;;;;;3.53;2.60;;;;;;;;;;4993503;28;20179;-82
2021/08/10 00:51:00;;;;;;;2.57;2.37;;;;;;;;;;4992598;28;20719;-81
2021/08/10 00:53:26;;;;;;;2.80;2.50;;;;;;;;;;4992147;28;20594;-82
2021/08/10 00:55:52;;;;;;;3.70;2.27;;;;;;;;;;4991434;28;20594;-81
2021/08/10 00:58:20;;;;;;;2.73;2.53;;;;;;;;;;5008480;28;20171;-81
2021/08/10 01:00:46;;;;;;;2.80;2.33;;;;;;;;;;4996598;28;20193;-82
2021/08/10 01:03:13;;;;;;;3.63;2.50;;;;;;;;;;4993022;28;20187;-81
2021/08/10 01:05:44;;;;;;;3.77;2.77;;;;;;;;;;4995982;28;20412;-81
2021/08/10 01:08:14;;;;;;;3.20;2.43;;;;;;;;;;4992472;28;20571;-81
2021/08/10 01:10:43;;;;;;;3.03;2.40;;;;;;;;;;4991520;28;20211;-81
2021/08/10 01:13:14;;;;;;;2.53;2.33;;;;;;;;;;4993124;28;21000;-81
2021/08/10 01:15:47;;;;;;;2.50;2.27;;;;;;;;;;4991704;28;20194;-81
2021/08/10 01:18:20;;;;;;;2.50;2.30;;;;;;;;;;5008189;28;20175;-81
2021/08/10 01:20:55;;;;;;;3.20;2.40;;;;;;;;;;4991150;28;20179;-81
2021/08/10 01:23:24;;;;;;;2.43;2.23;;;;;;;;;;4992801;28;20175;-81
2021/08/10 01:25:50;;;;;;;3.07;2.77;;;;;;;;;;4990081;28;20233;-81
2021/08/10 01:28:32;;;;;;;2.90;2.70;;;;;;;;;;5008229;28;20186;-81
2021/08/10 01:31:08;;;;;;;2.47;2.27;;;;;;;;;;4997002;28;20353;-81
2021/08/10 01:33:36;;;;;;;2.83;2.53;;;;;;;;;;4992618;28;20182;-81
2021/08/10 01:36:03;;;;;;;3.17;2.73;;;;;;;;;;4990870;28;20241;-81
2021/08/10 01:38:29;;;;;;;2.70;2.30;;;;;;;;;;5007413;28;20599;-81
2021/08/10 01:40:55;;;;;;;3.47;2.13;;;;;;;;;;4993164;28;20270;-81
2021/08/10 01:43:22;;;;;;;3.67;2.27;;;;;;;;;;5008381;28;20273;-81
2021/08/10 01:45:50;;;;;;;2.73;2.47;;;;;;;;;;4979245;28;20175;-82
2021/08/10 01:48:16;;;;;;;2.43;2.20;;;;;;;;;;5010561;28;20190;-82
2021/08/10 01:50:44;;;;;;;2.40;2.20;;;;;;;;;;4985288;28;20193;-81
2021/08/10 01:53:11;;;;;;;4.00;2.17;;;;;;;;;;5005830;28;20277;-81
2021/08/10 01:55:37;;;;;;;4.13;2.30;;;;;;;;;;4988064;28;20175;-81
2021/08/10 01:58:04;;;;;;;2.40;2.20;;;;;;;;;;5003000;28;20670;-81
2021/08/10 02:00:31;;;;;;;2.30;2.10;;;;;;;;;;5005326;28;20215;-81
2021/08/10 02:02:58;;;;;;;4.60;2.63;;;;;;;;;;4990224;28;20502;-81
2021/08/10 02:05:24;;;;;;;4.00;2.70;;;;;;;;;;4984901;28;20178;-81
2021/08/10 02:07:50;;;;;;;2.90;2.50;;;;;;;;;;4990410;28;21015;-82
2021/08/10 02:10:16;;;;;;;2.37;2.17;;;;;;;;;;4990215;28;20183;-81
2021/08/10 02:12:43;;;;;;;2.80;2.20;;;;;;;;;;4992287;28;20187;-81
2021/08/10 02:15:09;;;;;;;2.90;2.60;;;;;;;;;;4989971;28;20172;-81
2021/08/10 02:17:35;;;;;;;3.57;2.60;;;;;;;;;;4990409;28;20233;-81
2021/08/10 02:20:01;;;;;;;3.47;2.57;;;;;;;;;;4989699;28;20199;-81
2021/08/10 02:22:28;;;;;;;3.53;2.47;;;;;;;;;;4982999;28;20592;-81
2021/08/10 02:25:06;;;;;;;5.37;2.67;;;;;;;;;;4985367;28;20600;-81
2021/08/10 02:27:36;;;;;;;3.63;2.43;;;;;;;;;;4991944;28;20573;-81
2021/08/10 02:30:06;;;;;;;4.50;2.47;;;;;;;;;;4991420;28;20175;-81
2021/08/10 02:32:33;;;;;;;8.53;2.70;;;;;;;;;;5006796;28;20638;-81
2021/08/10 02:35:00;;;;;;;4.43;2.40;;;;;;;;;;4990945;28;20175;-81
2021/08/10 02:37:26;;;;;;;2.10;1.90;;;;;;;;;;4991733;28;20179;-81
2021/08/10 02:39:53;;;;;;;2.87;2.23;;;;;;;;;;4995877;28;20206;-81
2021/08/10 02:42:23;;;;;;;2.63;2.43;;;;;;;;;;4994583;28;20179;-81
2021/08/10 02:44:50;;;;;;;2.93;2.47;;;;;;;;;;5010337;28;20194;-81
2021/08/10 02:47:17;;;;;;;3.60;2.97;;;;;;;;;;4994208;28;20190;-81
2021/08/10 02:49:43;;;;;;;4.13;2.33;;;;;;;;;;5010110;28;20194;-81
2021/08/10 02:52:09;;;;;;;2.73;2.30;;;;;;;;;;5010326;28;20608;-81
2021/08/10 02:54:37;;;;;;;4.00;2.60;;;;;;;;;;4993045;28;20266;-81
2021/08/10 02:57:03;;;;;;;2.80;2.40;;;;;;;;;;4993730;28;20191;-82
2021/08/10 02:59:39;;;;;;;2.67;2.43;;;;;;;;;;5010275;28;20273;-82
2021/08/10 03:02:25;;;;;;;2.60;2.40;;;;;;;;;;4993575;28;20183;-82
2021/08/10 03:04:59;;;;;;;4.13;2.17;;;;;;;;;;4993186;28;20187;-82
2021/08/10 03:07:26;;;;;;;3.90;2.43;;;;;;;;;;4995168;28;20191;-82
2021/08/10 03:09:55;;;;;;;4.30;2.33;;;;;;;;;;4994086;28;20201;-81
2021/08/10 03:12:22;;;;;;;4.23;2.43;;;;;;;;;;4993529;28;20194;-81
2021/08/10 03:14:50;;;;;;;3.63;2.60;;;;;;;;;;4993723;28;20618;-81
2021/08/10 03:17:17;;;;;;;3.37;2.67;;;;;;;;;;4995280;28;20175;-81
2021/08/10 03:19:44;;;;;;;4.13;2.23;;;;;;;;;;4993032;28;20274;-80
2021/08/10 03:22:11;;;;;;;3.57;2.80;;;;;;;;;;4994849;28;20254;-81
2021/08/10 03:24:37;;;;;;;8.53;2.73;;;;;;;;;;4994916;28;20171;-82
2021/08/10 03:27:05;;;;;;;4.43;2.53;;;;;;;;;;4993567;28;20237;-82
2021/08/10 03:29:33;;;;;;;3.10;2.30;;;;;;;;;;5010331;28;20199;-82
2021/08/10 03:31:59;;;;;;;3.80;3.47;;;;;;;;;;4993455;28;20269;-81
2021/08/10 03:34:25;;;;;;;4.30;2.77;;;;;;;;;;4992922;28;20202;-81
2021/08/10 03:36:51;;;;;;;3.03;2.67;;;;;;;;;;4994613;28;20179;-81
2021/08/10 03:39:18;;;;;;;3.33;2.83;;;;;;;;;;4997305;28;20284;-81
2021/08/10 03:41:44;;;;;;;3.47;2.95;;;;;;;;;;4992887;28;20486;-81
2021/08/10 03:44:10;;;;;;;4.83;3.10;;;;;;;;;;4993257;28;20610;-81
2021/08/10 03:46:37;;;;;;;4.83;3.70;;;;;;;;;;4993157;28;20190;-82
2021/08/10 03:49:03;;;;;;;4.80;3.20;;;;;;;;;;5009254;28;20187;-81
2021/08/10 03:51:29;;;;;;;3.60;3.30;;;;;;;;;;4994339;28;20207;-81
2021/08/10 03:53:56;;;;;;;5.73;2.93;;;;;;;;;;4994397;28;20646;-81
2021/08/10 03:56:23;;;;;;;4.93;3.50;;;;;;;;;;4994143;28;20179;-81
2021/08/10 03:58:49;;;;;;;5.37;3.93;;;;;;;;;;4992738;28;20623;-81
2021/08/10 04:01:16;;;;;;;5.73;4.13;;;;;;;;;;5009514;28;20183;-82
2021/08/10 04:03:43;;;;;;;4.43;3.47;;;;;;;;;;4993725;28;20183;-82
2021/08/10 04:06:12;;;;;;;6.83;6.13;;;;;;;;;;4992274;28;20178;-81
2021/08/10 04:08:38;;;;;;;4.93;3.57;;;;;;;;;;4991886;28;20184;-81
2021/08/10 04:11:04;;;;;;;4.10;3.77;;;;;;;;;;5009487;28;20279;-81
2021/08/10 04:13:34;;;;;;;8.23;3.17;;;;;;;;;;4994564;28;20585;-81
2021/08/10 04:16:02;;;;;;;3.57;3.03;;;;;;;;;;5009324;28;20279;-81
2021/08/10 04:18:28;;;;;;;3.60;3.30;;;;;;;;;;4994968;28;20177;-81
2021/08/10 04:20:54;;;;;;;4.83;3.67;;;;;;;;;;5000014;28;20179;-81
2021/08/10 04:23:22;;;;;;;4.37;3.73;;;;;;;;;;5004877;28;20594;-81
2021/08/10 04:25:48;;;;;;;4.40;3.60;;;;;;;;;;5022400;28;20171;-81
2021/08/10 04:28:14;;;;;;;8.13;3.60;;;;;;;;;;5021746;28;21637;-80
2021/08/10 04:30:41;;;;;;;6.63;3.43;;;;;;;;;;5005301;28;20179;-81
2021/08/10 04:33:07;;;;;;;4.60;3.67;;;;;;;;;;5021693;28;20175;-81
2021/08/10 04:35:33;;;;;;;6.00;3.97;;;;;;;;;;5022562;28;20186;-81
2021/08/10 04:38:00;;;;;;;4.70;3.67;;;;;;;;;;5023186;28;20183;-80
2021/08/10 04:40:29;;;;;;;4.67;4.03;;;;;;;;;;5005401;28;20218;-81
2021/08/10 04:42:56;;;;;;;6.67;3.83;;;;;;;;;;5012615;28;20171;-81
2021/08/10 04:45:22;;;;;;;5.30;3.80;;;;;;;;;;4984619;28;20334;-81
2021/08/10 04:47:48;;;;;;;4.13;3.70;;;;;;;;;;4995114;28;20233;-81
2021/08/10 04:50:14;;;;;;;5.87;4.10;;;;;;;;;;4994261;28;20521;-81
2021/08/10 04:52:40;;;;;;;4.40;4.00;;;;;;;;;;4983242;28;20210;-81
2021/08/10 04:55:07;;;;;;;5.53;3.73;;;;;;;;;;4991537;28;20656;-81
2021/08/10 04:57:33;;;;;;;5.57;4.10;;;;;;;;;;4986799;28;20673;-81
2021/08/10 05:00:00;;;;;;;4.63;3.50;;;;;;;;;;4988861;28;20342;-81
2021/08/10 05:02:26;;;;;;;4.60;3.47;;;;;;;;;;4990683;28;20190;-80
2021/08/10 05:04:53;;;;;;;5.13;3.83;;;;;;;;;;4992438;28;20242;-81
2021/08/10 05:07:19;;;;;;;4.90;3.83;;;;;;;;;;5008214;28;20514;-81
2021/08/10 05:09:45;;;;;;;4.87;3.40;;;;;;;;;;4993025;28;20630;-81
2021/08/10 05:12:11;;;;;;;3.97;3.43;;;;;;;;;;5008330;28;20374;-81
2021/08/10 05:14:37;;;;;;;6.20;4.20;;;;;;;;;;5006117;28;20168;-81
2021/08/10 05:17:04;;;;;;;3.87;3.30;;;;;;;;;;5000004;28;20180;-81
2021/08/10 05:19:30;;;;;;;5.67;4.30;;;;;;;;;;4991008;28;20206;-81
2021/08/10 05:21:56;;;;;;;5.17;4.30;;;;;;;;;;4998299;28;20172;-81
2021/08/10 05:24:22;;;;;;;4.73;3.93;;;;;;;;;;5014331;28;20179;-81
2021/08/10 05:26:48;;;;;;;5.30;4.50;;;;;;;;;;5009474;28;20519;-82
2021/08/10 05:29:14;;;;;;;5.63;3.97;;;;;;;;;;4983744;28;20181;-81
2021/08/10 05:31:42;;;;;;;6.17;4.63;;;;;;;;;;4990286;28;20195;-81
2021/08/10 05:34:08;;;;;;;4.53;4.13;;;;;;;;;;5008422;28;20179;-81
2021/08/10 05:36:34;;;;;;;4.60;3.80;;;;;;;;;;5008648;28;20655;-80
2021/08/10 05:39:00;;;;;;;4.50;3.27;;;;;;;;;;4993463;28;20222;-81
2021/08/10 05:41:26;;;;;;;6.03;4.17;;;;;;;;;;5008439;28;20188;-81
2021/08/10 05:43:52;;;;;;;5.83;3.90;;;;;;;;;;5008357;28;20282;-81
2021/08/10 05:46:18;;;;;;;6.80;4.17;;;;;;;;;;5005769;28;20198;-81
2021/08/10 05:48:44;;;;;;;6.03;4.77;;;;;;;;;;4991999;28;20184;-82
2021/08/10 05:51:10;;;;;;;7.97;4.27;;;;;;;;;;4991035;28;20179;-81
2021/08/10 05:53:36;;;;;;;4.67;3.70;;;;;;;;;;4990825;28;20223;-81
2021/08/10 05:56:06;;;;;;;6.63;3.67;;;;;;;;;;5007880;28;20542;-81
2021/08/10 05:58:32;;;;;;;5.97;4.00;;;;;;;;;;5008053;28;20168;-81
2021/08/10 06:00:58;;;;;;;5.43;4.20;;;;;;;;;;4992394;28;20234;-82
2021/08/10 06:03:24;;;;;;;5.07;3.77;;;;;;;;;;5006257;28;20183;-82
2021/08/10 06:05:50;;;;;;;6.37;4.53;;;;;;;;;;4991987;28;20191;-81
2021/08/10 06:08:16;;;;;;;7.60;3.83;;;;;;;;;;5008312;28;20194;-81
2021/08/10 06:10:42;;;;;;;4.73;4.10;;;;;;;;;;5007745;28;20260;-81
2021/08/10 06:13:08;;;;;;;5.80;4.23;;;;;;;;;;4992106;28;20180;-82
2021/08/10 06:15:34;;;;;;;9.30;5.20;;;;;;;;;;5009058;28;20191;-81
2021/08/10 06:18:00;;;;;;;4.50;3.70;;;;;;;;;;5008028;28;20187;-81
2021/08/10 06:20:26;;;;;;;5.73;3.80;;;;;;;;;;4990647;28;20199;-81
2021/08/10 06:22:52;;;;;;;4.60;3.73;;;;;;;;;;4992503;28;20183;-82
2021/08/10 06:25:18;;;;;;;4.23;3.63;;;;;;;;;;4990499;28;20188;-82
2021/08/10 06:27:44;;;;;;;5.97;3.47;;;;;;;;;;4991061;28;20186;-81
2021/08/10 06:30:11;;;;;;;5.60;4.00;;;;;;;;;;4991824;28;20179;-81
2021/08/10 06:32:37;;;;;;;6.40;3.87;;;;;;;;;;5007626;28;20237;-82
2021/08/10 06:35:03;;;;;;;4.33;3.90;;;;;;;;;;5005657;28;20262;-83
2021/08/10 06:37:29;;;;;;;4.23;3.30;;;;;;;;;;4989659;28;20179;-82
2021/08/10 06:39:55;;;;;;;4.33;3.53;;;;;;;;;;5006964;28;20591;-81
2021/08/10 06:42:22;;;;;;;3.63;2.87;;;;;;;;;;5006968;28;20243;-82
2021/08/10 06:44:48;;;;;;;5.03;3.53;;;;;;;;;;5007271;28;20186;-82
2021/08/10 06:47:15;;;;;;;5.40;3.73;;;;;;;;;;4993952;28;20180;-82
2021/08/10 06:49:42;;;;;;;5.13;3.70;;;;;;;;;;4998094;28;20191;-82
2021/08/10 06:52:09;;;;;;;4.30;3.30;;;;;;;;;;4991200;28;20599;-81
2021/08/10 06:54:35;;;;;;;3.57;3.13;;;;;;;;;;5006405;28;20266;-82
2021/08/10 06:57:06;;;;;;;4.37;3.83;;;;;;;;;;4992338;28;20187;-82
2021/08/10 06:59:35;;;;;;;4.57;3.83;;;;;;;;;;4992567;28;20250;-82
2021/08/10 07:02:02;;;;;;;5.33;3.80;;;;;;;;;;4991710;28;20175;-82
2021/08/10 07:04:28;;;;;;;7.63;3.83;;;;;;;;;;4991113;28;20180;-82
2021/08/10 07:06:54;;;;;;;4.33;3.60;;;;;;;;;;4992236;28;20199;-81
2021/08/10 07:09:22;;;;;;;4.80;3.50;;;;;;;;;;4992871;28;20179;-81
2021/08/10 07:11:48;;;;;;;7.07;4.70;;;;;;;;;;4991781;28;20182;-82
2021/08/10 07:14:14;;;;;;;4.90;3.50;;;;;;;;;;4990401;28;20179;-81
2021/08/10 07:16:41;;;;;;;11.83;3.27;;;;;;;;;;4991587;28;20667;-81
2021/08/10 07:19:07;;;;;;;4.63;3.47;;;;;;;;;;4990040;28;20549;-81
2021/08/10 07:21:33;;;;;;;6.10;4.53;;;;;;;;;;4990525;28;20204;-81
2021/08/10 07:23:59;;;;;;;5.30;3.33;;;;;;;;;;4990930;28;20175;-79
2021/08/10 07:26:25;;;;;;;4.70;3.67;;;;;;;;;;4995248;28;20599;-80
2021/08/10 07:28:51;;;;;;;4.43;3.47;;;;;;;;;;4993521;28;20175;-81
2021/08/10 07:31:18;;;;;;;6.53;3.70;;;;;;;;;;4995037;28;20178;-81
2021/08/10 07:33:44;;;;;;;6.30;3.47;;;;;;;;;;4994124;28;20187;-81
2021/08/10 07:36:10;;;;;;;3.60;3.10;;;;;;;;;;4994459;28;20173;-81
2021/08/10 07:38:36;;;;;;;5.47;3.87;;;;;;;;;;5010579;28;20183;-81
2021/08/10 07:41:02;;;;;;;4.10;3.70;;;;;;;;;;5009941;28;20635;-80
2021/08/10 07:43:28;;;;;;;3.83;3.53;;;;;;;;;;4995140;28;20186;-81
2021/08/10 07:45:54;;;;;;;4.43;3.00;;;;;;;;;;5009596;28;20234;-81
2021/08/10 07:48:20;;;;;;;4.63;3.23;;;;;;;;;;5009942;28;20297;-81
2021/08/10 07:50:49;;;;;;;4.70;3.53;;;;;;;;;;4994279;28;20182;-81
2021/08/10 07:53:21;;;;;;;4.83;4.20;;;;;;;;;;5009868;28;20196;-81
2021/08/10 07:55:48;;;;;;;4.50;3.57;;;;;;;;;;4994861;28;20183;-81
2021/08/10 07:58:14;;;;;;;3.90;3.53;;;;;;;;;;5009694;28;20839;-81
2021/08/10 08:00:40;;;;;;;3.77;3.00;;;;;;;;;;5009163;28;20217;-80
2021/08/10 08:03:06;;;;;;;4.10;3.27;;;;;;;;;;4994854;28;20205;-80
2021/08/10 08:05:32;;;;;;;4.67;3.40;;;;;;;;;;4990763;28;20565;-81
2021/08/10 08:07:59;;;;;;;6.23;3.53;;;;;;;;;;4994986;28;20198;-81
2021/08/10 08:10:25;;;;;;;3.10;2.83;;;;;;;;;;5009515;28;20229;-81
2021/08/10 08:12:51;;;;;;;4.53;3.00;;;;;;;;;;4994838;28;20186;-82
2021/08/10 08:15:17;;;;;;;4.40;3.63;;;;;;;;;;5009493;28;20512;-81
2021/08/10 08:17:43;;;;;;;5.20;3.70;;;;;;;;;;4992852;28;20819;-81
2021/08/10 08:20:10;;;;;;;4.10;3.23;;;;;;;;;;5008141;28;20195;-82
2021/08/10 08:22:36;;;;;;;5.93;3.50;;;;;;;;;;4994623;28;20168;-81
2021/08/10 08:25:03;;;;;;;4.90;3.10;;;;;;;;;;4993881;28;20179;-81
2021/08/10 08:27:29;;;;;;;4.43;2.60;;;;;;;;;;4994049;28;20496;-82
2021/08/10 08:29:55;;;;;;;5.73;3.00;;;;;;;;;;5008903;28;20610;-81
2021/08/10 08:32:21;;;;;;;3.70;2.97;;;;;;;;;;4990769;28;20191;-81
2021/08/10 08:34:47;;;;;;;2.90;2.60;;;;;;;;;;5008222;28;20692;-81
2021/08/10 08:37:13;;;;;;;2.93;2.57;;;;;;;;;;4988661;28;20262;-81
2021/08/10 08:39:39;;;;;;;3.90;2.70;;;;;;;;;;4994100;28;20594;-81
2021/08/10 08:42:05;;;;;;;3.83;2.60;;;;;;;;;;5008729;28;20317;-81
2021/08/10 08:44:35;;;;;;;4.10;2.80;;;;;;;;;;4993270;28;20650;-81
2021/08/10 08:47:05;;;;;;;5.03;2.90;;;;;;;;;;4992100;28;20191;-81
2021/08/10 08:49:32;;;;;;;5.37;2.73;;;;;;;;;;4991598;28;20194;-81
2021/08/10 08:52:01;;;;;;;3.20;2.57;;;;;;;;;;4991983;28;20662;-81
2021/08/10 08:54:29;;;;;;;3.63;2.97;;;;;;;;;;5007910;28;20211;-82
2021/08/10 08:56:55;;;;;;;4.63;3.10;;;;;;;;;;4991627;28;20876;-81
2021/08/10 08:59:22;;;;;;;3.60;2.93;;;;;;;;;;5007980;28;20199;-81
2021/08/10 09:01:52;;;;;;;3.33;2.97;;;;;;;;;;4998445;28;20194;-81
2021/08/10 09:04:18;;;;;;;6.13;3.47;;;;;;;;;;4991257;28;20190;-81
2021/08/10 09:06:45;;;;;;;3.77;2.80;;;;;;;;;;4992949;28;20203;-82
2021/08/10 09:09:21;;;;;;;4.37;3.20;;;;;;;;;;5007918;28;20191;-82
2021/08/10 09:12:06;;;;;;;3.60;2.80;;;;;;;;;;5007935;28;20202;-81
2021/08/10 09:14:46;;;;;;;4.73;3.40;;;;;;;;;;5008037;28;20183;-81
2021/08/10 09:17:13;;;;;;;3.77;3.00;;;;;;;;;;5008296;28;20179;-82
2021/08/10 09:19:44;;;;;;;3.73;2.70;;;;;;;;;;5008071;28;20261;-82
2021/08/10 09:22:18;;;;;;;4.60;3.23;;;;;;;;;;5008386;28;20206;-82
2021/08/10 09:25:04;;;;;;;3.77;2.90;;;;;;;;;;4992887;28;20611;-83
2021/08/10 09:27:38;;;;;;;4.40;3.00;;;;;;;;;;4991373;28;20182;-82
2021/08/10 09:30:09;;;;;;;3.00;2.60;;;;;;;;;;5007528;28;20212;-82
2021/08/10 09:32:35;;;;;;;3.47;3.17;;;;;;;;;;4976001;28;20187;-81
2021/08/10 09:35:08;;;;;;;5.07;3.47;;;;;;;;;;4983460;28;20187;-81
2021/08/10 09:37:34;;;;;;;3.63;3.27;;;;;;;;;;4991460;28;20187;-81
2021/08/10 09:40:00;;;;;;;5.77;3.80;;;;;;;;;;5007472;28;20340;-82
2021/08/10 09:42:27;;;;;;;5.50;3.23;;;;;;;;;;4991807;28;20179;-82
2021/08/10 09:44:59;;;;;;;4.13;3.50;;;;;;;;;;4992417;28;20171;-82
2021/08/10 09:47:35;;;;;;;4.07;3.07;;;;;;;;;;4992872;28;20173;-82
2021/08/10 09:50:01;;;;;;;4.30;3.33;;;;;;;;;;5007377;28;20190;-81
2021/08/10 09:52:29;;;;;;;5.00;3.13;;;;;;;;;;5007366;28;20183;-81
2021/08/10 09:54:56;;;;;;;4.63;3.57;;;;;;;;;;4992120;28;20219;-82
2021/08/10 09:57:22;;;;;;;4.70;3.33;;;;;;;;;;4989192;28;20179;-81
2021/08/10 09:59:48;;;;;;;4.00;3.00;;;;;;;;;;4977848;28;20203;-81
2021/08/10 10:02:21;;;;;;;4.33;3.30;;;;;;;;;;4991055;28;20183;-81
2021/08/10 10:04:51;;;;;;;3.27;2.97;;;;;;;;;;4987001;28;20280;-81
2021/08/10 10:07:18;;;;;;;3.63;3.30;;;;;;;;;;5007261;28;20203;-81
2021/08/10 10:09:44;;;;;;;3.80;3.07;;;;;;;;;;4990761;28;20185;-81
2021/08/10 10:12:11;;;;;;;5.30;3.17;;;;;;;;;;5006588;28;20721;-81
2021/08/10 10:14:40;;;;;;;3.97;3.37;;;;;;;;;;4991926;28;20213;-81
2021/08/10 10:17:08;;;;;;;3.40;2.73;;;;;;;;;;5006550;28;20292;-81
2021/08/10 10:19:39;;;;;;;3.73;3.40;;;;;;;;;;5006604;28;20206;-81
2021/08/10 10:22:13;;;;;;;4.60;3.63;;;;;;;;;;5005357;28;20577;-81
2021/08/10 10:24:40;;;;;;;3.73;3.40;;;;;;;;;;4996922;28;20205;-81
2021/08/10 10:27:07;;;;;;;4.50;3.23;;;;;;;;;;4992161;28;20179;-81
2021/08/10 10:29:34;;;;;;;3.50;3.20;;;;;;;;;;5003761;28;20189;-82
2021/08/10 10:32:01;;;;;;;4.90;3.17;;;;;;;;;;4988183;28;20180;-82
2021/08/10 10:34:28;;;;;;;4.47;3.33;;;;;;;;;;5006067;28;20187;-81
2021/08/10 10:36:56;;;;;;;4.73;3.17;;;;;;;;;;4987194;28;20190;-80
2021/08/10 10:39:24;;;;;;;4.93;3.50;;;;;;;;;;4991746;28;20742;-82
2021/08/10 10:41:53;;;;;;;5.20;3.17;;;;;;;;;;4990616;28;20266;-80
2021/08/10 10:44:39;;;;;;;5.93;3.17;;;;;;;;;;4990382;28;20212;-80
2021/08/10 10:47:21;;;;;;;4.70;3.33;;;;;;;;;;4993361;28;20198;-81
2021/08/10 10:49:47;;;;;;;5.43;4.00;;;;;;;;;;4988348;28;20607;-81
2021/08/10 10:52:16;;;;;;;4.27;3.77;;;;;;;;;;4992808;28;20217;-81
2021/08/10 10:54:44;;;;;;;5.00;3.03;;;;;;;;;;5007200;28;20231;-81
2021/08/10 10:57:30;;;;;;;4.20;3.67;;;;;;;;;;5007343;28;20191;-81
2021/08/10 11:00:12;;;;;;;5.43;3.03;;;;;;;;;;4993685;28;20195;-80
2021/08/10 11:02:39;;;;;;;8.13;3.63;;;;;;;;;;5011082;28;20259;-80
2021/08/10 11:05:05;;;;;;;6.37;3.63;;;;;;;;;;4985541;28;20720;-80
2021/08/10 11:07:37;;;;;;;4.03;3.40;;;;;;;;;;4995268;28;20202;-80
2021/08/10 11:10:07;;;;;;;5.13;3.27;;;;;;;;;;4993304;28;20193;-81
2021/08/10 11:12:34;;;;;;;4.10;3.10;;;;;;;;;;4998107;28;20655;-80
2021/08/10 11:15:00;;;;;;;4.83;3.60;;;;;;;;;;5010328;28;20190;-80
2021/08/10 11:17:26;;;;;;;4.87;3.10;;;;;;;;;;5010021;28;20194;-81
2021/08/10 11:19:53;;;;;;;5.50;3.63;;;;;;;;;;5009044;28;20258;-80
2021/08/10 11:22:19;;;;;;;5.57;4.33;;;;;;;;;;4994869;28;20183;-81
2021/08/10 11:24:53;;;;;;;7.77;4.00;;;;;;;;;;5005842;28;20207;-81
2021/08/10 11:27:37;;;;;;;7.53;4.10;;;;;;;;;;4991394;28;20175;-81
2021/08/10 11:30:06;;;;;;;3.50;3.20;;;;;;;;;;5009971;28;20194;-80
2021/08/10 11:32:40;;;;;;;7.27;3.43;;;;;;;;;;5009930;28;20213;-81
2021/08/10 11:35:25;;;;;;;3.80;3.47;;;;;;;;;;4991721;28;20242;-81
2021/08/10 11:38:06;;;;;;;4.17;3.63;;;;;;;;;;4988934;28;20983;-81
2021/08/10 11:40:47;;;;;;;3.77;3.07;;;;;;;;;;4990126;28;20192;-81
2021/08/10 11:43:13;;;;;;;6.20;3.50;;;;;;;;;;4999483;28;20174;-81
2021/08/10 11:45:41;;;;;;;6.07;3.37;;;;;;;;;;5009299;28;20171;-81
2021/08/10 11:48:08;;;;;;;3.70;3.30;;;;;;;;;;5009974;28;20818;-81
2021/08/10 11:50:35;;;;;;;3.53;2.90;;;;;;;;;;5008735;28;20580;-81
2021/08/10 11:53:04;;;;;;;4.13;2.83;;;;;;;;;;5008862;28;20201;-81
2021/08/10 11:55:30;;;;;;;4.40;2.80;;;;;;;;;;5009203;28;20270;-81
2021/08/10 11:57:58;;;;;;;4.67;3.23;;;;;;;;;;5009522;28;20602;-80
2021/08/10 12:00:24;;;;;;;4.43;3.40;;;;;;;;;;4993794;28;20674;-81
2021/08/10 12:02:50;;;;;;;4.13;3.37;;;;;;;;;;5008730;28;20282;-81
2021/08/10 12:05:17;;;;;;;4.47;2.93;;;;;;;;;;4992943;28;20171;-82
2021/08/10 12:07:59;;;;;;;4.20;2.97;;;;;;;;;;4992722;28;20199;-78
2021/08/10 12:10:30;;;;;;;2.63;2.43;;;;;;;;;;4992761;28;20183;-79
2021/08/10 12:12:57;;;;;;;3.53;2.93;;;;;;;;;;4990918;28;20183;-79
2021/08/10 12:15:42;;;;;;;4.83;3.20;;;;;;;;;;4990495;28;20203;-79
2021/08/10 12:18:08;;;;;;;4.43;3.27;;;;;;;;;;4991697;28;20175;-79
2021/08/10 12:20:34;;;;;;;4.23;3.00;;;;;;;;;;5008752;28;20250;-79
2021/08/10 12:23:05;;;;;;;4.60;3.23;;;;;;;;;;4993533;28;20205;-79
2021/08/10 12:25:31;;;;;;;3.07;2.50;;;;;;;;;;4983257;28;20186;-79
2021/08/10 12:28:01;;;;;;;5.10;2.90;;;;;;;;;;4993862;28;20547;-79
2021/08/10 12:30:29;;;;;;;3.10;2.80;;;;;;;;;;5008238;28;20187;-79
2021/08/10 12:33:09;;;;;;;3.83;2.63;;;;;;;;;;4994219;28;20648;-79
2021/08/10 12:35:35;;;;;;;3.17;2.87;;;;;;;;;;4980327;28;20189;-79
2021/08/10 12:38:02;;;;;;;2.90;2.37;;;;;;;;;;5012051;28;21017;-79
2021/08/10 12:40:29;;;;;;;6.27;2.80;;;;;;;;;;4992977;28;20203;-79
2021/08/10 12:42:55;;;;;;;2.87;2.60;;;;;;;;;;4992994;28;20187;-80
2021/08/10 12:45:21;;;;;;;3.30;2.63;;;;;;;;;;4988151;28;20194;-79
2021/08/10 12:47:47;;;;;;;3.67;2.57;;;;;;;;;;4990748;28;20546;-79
2021/08/10 12:50:27;;;;;;;3.07;2.43;;;;;;;;;;4998492;28;20172;-79
2021/08/10 12:52:54;;;;;;;3.50;2.87;;;;;;;;;;4992725;28;20186;-80
2021/08/10 12:55:20;;;;;;;5.20;2.73;;;;;;;;;;4994748;28;20768;-79
2021/08/10 12:57:46;;;;;;;3.80;2.67;;;;;;;;;;4994717;28;20677;-79
2021/08/10 13:00:16;;;;;;;3.00;2.70;;;;;;;;;;4992932;28;20227;-79
2021/08/10 13:02:43;;;;;;;3.40;3.00;;;;;;;;;;4993851;28;20191;-79
2021/08/10 13:05:17;;;;;;;3.33;2.50;;;;;;;;;;4992328;28;20558;-79
2021/08/10 13:08:04;;;;;;;3.10;2.80;;;;;;;;;;4991350;28;20298;-79
2021/08/10 13:10:35;;;;;;;3.33;3.03;;;;;;;;;;4992785;28;20860;-79
2021/08/10 13:13:04;;;;;;;3.60;2.87;;;;;;;;;;5010503;28;20624;-80
2021/08/10 13:15:44;;;;;;;3.53;2.63;;;;;;;;;;5009390;28;20183;-83
2021/08/10 13:18:26;;;;;;;4.27;2.80;;;;;;;;;;4989110;28;20194;-83
2021/08/10 13:20:54;;;;;;;3.90;3.30;;;;;;;;;;4992997;28;21088;-83
2021/08/10 13:23:20;;;;;;;3.40;3.10;;;;;;;;;;4993953;28;21518;-83
2021/08/10 13:26:00;;;;;;;4.37;3.60;;;;;;;;;;5004217;28;20273;-84
2021/08/10 13:28:28;;;;;;;3.53;3.17;;;;;;;;;;4986318;28;20180;-79
2021/08/10 13:31:09;;;;;;;4.57;3.10;;;;;;;;;;4989119;28;20179;-79
2021/08/10 13:33:48;;;;;;;6.47;3.77;;;;;;;;;;4992268;28;20592;-79
2021/08/10 13:36:15;;;;;;;5.43;3.77;;;;;;;;;;4990116;28;20186;-80
2021/08/10 13:38:41;;;;;;;3.90;3.50;;;;;;;;;;4992043;28;20202;-80
2021/08/10 13:41:07;;;;;;;6.93;3.70;;;;;;;;;;5005583;28;20203;-80
2021/08/10 13:43:33;;;;;;;5.00;3.63;;;;;;;;;;5006862;28;20185;-80
2021/08/10 13:45:59;;;;;;;4.13;3.73;;;;;;;;;;5003824;28;20230;-80
2021/08/10 13:48:25;;;;;;;4.33;3.30;;;;;;;;;;4988347;28;20244;-80
2021/08/10 13:50:51;;;;;;;5.37;4.10;;;;;;;;;;4984724;28;20199;-80
2021/08/10 13:53:18;;;;;;;4.30;3.90;;;;;;;;;;4989675;28;20194;-80
2021/08/10 13:55:44;;;;;;;6.03;3.80;;;;;;;;;;5006024;28;20206;-80
2021/08/10 13:58:11;;;;;;;4.77;3.67;;;;;;;;;;5006114;28;20623;-80
2021/08/10 14:00:37;;;;;;;5.60;4.30;;;;;;;;;;5004455;28;20237;-80
2021/08/10 14:03:05;;;;;;;4.33;3.50;;;;;;;;;;5006621;28;20247;-80
2021/08/10 14:05:31;;;;;;;4.70;3.77;;;;;;;;;;5004365;28;20250;-80
2021/08/10 14:07:57;;;;;;;3.83;3.30;;;;;;;;;;5005695;28;20269;-80
2021/08/10 14:10:23;;;;;;;4.30;3.60;;;;;;;;;;4991687;28;20183;-80
2021/08/10 14:12:49;;;;;;;5.30;3.57;;;;;;;;;;4990006;28;20282;-79
2021/08/10 14:15:15;;;;;;;5.73;3.37;;;;;;;;;;4991357;28;20291;-79
2021/08/10 14:17:41;;;;;;;3.67;3.20;;;;;;;;;;4990568;28;20601;-80
2021/08/10 14:20:08;;;;;;;6.23;3.93;;;;;;;;;;4987652;28;20299;-80
2021/08/10 14:22:35;;;;;;;3.93;3.20;;;;;;;;;;4991085;28;20263;-80
2021/08/10 14:25:01;;;;;;;5.73;3.63;;;;;;;;;;4990987;28;20566;-80
2021/08/10 14:27:27;;;;;;;4.97;3.57;;;;;;;;;;4987537;28;20183;-80
2021/08/10 14:29:53;;;;;;;4.13;2.80;;;;;;;;;;4990951;28;20198;-80
2021/08/10 14:32:21;;;;;;;3.70;3.17;;;;;;;;;;4990947;28;20178;-79
2021/08/10 14:34:48;;;;;;;4.78;3.88;;;;;;;;;;4987139;28;20507;-86
2021/08/10 14:37:14;;;;;;;11.07;4.67;;;;;;;;;;5006542;28;20643;-81
2021/08/10 14:39:40;;;;;;;11.00;4.20;;;;;;;;;;5007251;28;20344;-79
2021/08/10 14:42:06;;;;;;;5.33;3.90;;;;;;;;;;4991610;28;20196;-79
2021/08/10 14:44:32;;;;;;;5.37;3.73;;;;;;;;;;4991057;28;20180;-80
2021/08/10 14:46:58;;;;;;;4.03;3.57;;;;;;;;;;4987886;28;20202;-80
2021/08/10 14:49:26;;;;;;;5.57;3.87;;;;;;;;;;4986810;28;20185;-81